sensor_id;sensor_type;location;lat;lon;timestamp;P1;durP1;ratioP1;P2;durP2;ratioP2
23328;SDS011;11836;51.050;3.716;2023-04-03T00:00:28;3.40;;;2.25;;
23328;SDS011;11836;51.050;3.716;2023-04-03T00:02:54;1.98;;;1.67;;
23328;SDS011;11836;51.050;3.716;2023-04-03T00:05:20;4.80;;;2.10;;
23328;SDS011;11836;51.050;3.716;2023-04-03T00:07:45;2.75;;;2.20;;
23328;SDS011;11836;51.050;3.716;2023-04-03T00:10:11;3.05;;;2.25;;
23328;SDS011;11836;51.050;3.716;2023-04-03T00:12:38;3.33;;;2.28;;
23328;SDS011;11836;51.050;3.716;2023-04-03T00:15:04;2.30;;;1.75;;
23328;SDS011;11836;51.050;3.716;2023-04-03T00:17:30;2.88;;;2.03;;
23328;SDS011;11836;51.050;3.716;2023-04-03T00:19:56;3.35;;;2.15;;
23328;SDS011;11836;51.050;3.716;2023-04-03T00:22:21;2.38;;;1.98;;
23328;SDS011;11836;51.050;3.716;2023-04-03T00:24:47;2.42;;;1.80;;
23328;SDS011;11836;51.050;3.716;2023-04-03T00:27:15;4.28;;;2.40;;
23328;SDS011;11836;51.050;3.716;2023-04-03T00:29:41;2.75;;;1.90;;
23328;SDS011;11836;51.050;3.716;2023-04-03T00:32:07;3.63;;;1.77;;
23328;SDS011;11836;51.050;3.716;2023-04-03T00:34:32;2.80;;;1.88;;
23328;SDS011;11836;51.050;3.716;2023-04-03T00:36:58;2.65;;;1.80;;
23328;SDS011;11836;51.050;3.716;2023-04-03T00:39:23;2.08;;;1.63;;
23328;SDS011;11836;51.050;3.716;2023-04-03T00:41:49;2.00;;;1.75;;
23328;SDS011;11836;51.050;3.716;2023-04-03T00:44:22;2.63;;;1.90;;
23328;SDS011;11836;51.050;3.716;2023-04-03T00:47:00;4.38;;;1.95;;
23328;SDS011;11836;51.050;3.716;2023-04-03T00:49:30;2.50;;;1.95;;
23328;SDS011;11836;51.050;3.716;2023-04-03T00:51:56;2.63;;;2.00;;
23328;SDS011;11836;51.050;3.716;2023-04-03T00:54:23;3.00;;;1.60;;
23328;SDS011;11836;51.050;3.716;2023-04-03T00:56:51;3.58;;;2.00;;
23328;SDS011;11836;51.050;3.716;2023-04-03T00:59:19;2.55;;;1.90;;
23328;SDS011;11836;51.050;3.716;2023-04-03T01:01:50;2.47;;;1.40;;
23328;SDS011;11836;51.050;3.716;2023-04-03T01:04:27;3.20;;;2.40;;
23328;SDS011;11836;51.050;3.716;2023-04-03T01:07:00;2.47;;;1.55;;
23328;SDS011;11836;51.050;3.716;2023-04-03T01:09:41;2.42;;;1.60;;
23328;SDS011;11836;51.050;3.716;2023-04-03T01:14:48;2.85;;;1.85;;
23328;SDS011;11836;51.050;3.716;2023-04-03T01:25:48;2.45;;;1.70;;
23328;SDS011;11836;51.050;3.716;2023-04-03T01:28:17;3.10;;;1.85;;
23328;SDS011;11836;51.050;3.716;2023-04-03T01:31:00;1.65;;;1.52;;
23328;SDS011;11836;51.050;3.716;2023-04-03T01:33:44;1.52;;;1.40;;
23328;SDS011;11836;51.050;3.716;2023-04-03T01:36:13;3.83;;;1.95;;
23328;SDS011;11836;51.050;3.716;2023-04-03T01:38:43;2.50;;;1.75;;
23328;SDS011;11836;51.050;3.716;2023-04-03T01:41:09;2.00;;;1.80;;
23328;SDS011;11836;51.050;3.716;2023-04-03T01:43:35;1.92;;;1.55;;
23328;SDS011;11836;51.050;3.716;2023-04-03T01:46:01;2.58;;;1.63;;
23328;SDS011;11836;51.050;3.716;2023-04-03T01:48:26;2.95;;;1.73;;
23328;SDS011;11836;51.050;3.716;2023-04-03T01:50:52;1.60;;;1.50;;
23328;SDS011;11836;51.050;3.716;2023-04-03T01:53:18;1.95;;;1.58;;
23328;SDS011;11836;51.050;3.716;2023-04-03T01:55:44;2.05;;;1.55;;
23328;SDS011;11836;51.050;3.716;2023-04-03T01:58:10;2.42;;;1.40;;
23328;SDS011;11836;51.050;3.716;2023-04-03T02:00:42;2.42;;;1.83;;
23328;SDS011;11836;51.050;3.716;2023-04-03T02:03:07;2.20;;;1.70;;
23328;SDS011;11836;51.050;3.716;2023-04-03T02:05:33;2.40;;;1.73;;
23328;SDS011;11836;51.050;3.716;2023-04-03T02:07:59;2.00;;;1.80;;
23328;SDS011;11836;51.050;3.716;2023-04-03T02:10:25;3.28;;;1.98;;
23328;SDS011;11836;51.050;3.716;2023-04-03T02:12:51;1.75;;;1.40;;
23328;SDS011;11836;51.050;3.716;2023-04-03T02:15:17;2.35;;;1.48;;
23328;SDS011;11836;51.050;3.716;2023-04-03T02:17:43;2.13;;;1.50;;
23328;SDS011;11836;51.050;3.716;2023-04-03T02:20:09;2.45;;;1.55;;
23328;SDS011;11836;51.050;3.716;2023-04-03T02:22:35;2.03;;;1.60;;
23328;SDS011;11836;51.050;3.716;2023-04-03T02:25:01;1.73;;;1.60;;
23328;SDS011;11836;51.050;3.716;2023-04-03T02:27:26;2.08;;;1.70;;
23328;SDS011;11836;51.050;3.716;2023-04-03T02:29:52;3.13;;;1.83;;
23328;SDS011;11836;51.050;3.716;2023-04-03T02:32:18;2.92;;;1.67;;
23328;SDS011;11836;51.050;3.716;2023-04-03T02:34:43;2.47;;;1.60;;
23328;SDS011;11836;51.050;3.716;2023-04-03T02:37:09;3.00;;;1.50;;
23328;SDS011;11836;51.050;3.716;2023-04-03T02:39:35;2.40;;;1.65;;
23328;SDS011;11836;51.050;3.716;2023-04-03T02:42:01;2.65;;;1.92;;
23328;SDS011;11836;51.050;3.716;2023-04-03T02:44:26;2.13;;;1.50;;
23328;SDS011;11836;51.050;3.716;2023-04-03T02:46:52;2.75;;;1.75;;
23328;SDS011;11836;51.050;3.716;2023-04-03T02:49:18;2.05;;;1.60;;
23328;SDS011;11836;51.050;3.716;2023-04-03T02:51:43;1.92;;;1.20;;
23328;SDS011;11836;51.050;3.716;2023-04-03T02:54:09;2.53;;;1.58;;
23328;SDS011;11836;51.050;3.716;2023-04-03T02:56:35;1.60;;;1.50;;
23328;SDS011;11836;51.050;3.716;2023-04-03T02:59:00;4.13;;;1.80;;
23328;SDS011;11836;51.050;3.716;2023-04-03T03:01:26;3.63;;;1.70;;
23328;SDS011;11836;51.050;3.716;2023-04-03T03:03:56;1.95;;;1.50;;
23328;SDS011;11836;51.050;3.716;2023-04-03T03:06:22;2.80;;;1.50;;
23328;SDS011;11836;51.050;3.716;2023-04-03T03:08:48;2.15;;;1.70;;
23328;SDS011;11836;51.050;3.716;2023-04-03T03:11:13;3.15;;;1.92;;
23328;SDS011;11836;51.050;3.716;2023-04-03T03:13:39;2.47;;;1.42;;
23328;SDS011;11836;51.050;3.716;2023-04-03T03:16:05;2.50;;;1.77;;
23328;SDS011;11836;51.050;3.716;2023-04-03T03:18:31;2.13;;;1.42;;
23328;SDS011;11836;51.050;3.716;2023-04-03T03:20:59;2.67;;;1.80;;
23328;SDS011;11836;51.050;3.716;2023-04-03T03:23:26;2.05;;;1.70;;
23328;SDS011;11836;51.050;3.716;2023-04-03T03:25:56;2.33;;;1.90;;
23328;SDS011;11836;51.050;3.716;2023-04-03T03:28:24;2.30;;;1.90;;
23328;SDS011;11836;51.050;3.716;2023-04-03T03:30:50;2.92;;;1.67;;
23328;SDS011;11836;51.050;3.716;2023-04-03T03:33:16;1.98;;;1.63;;
23328;SDS011;11836;51.050;3.716;2023-04-03T03:35:42;2.78;;;1.65;;
23328;SDS011;11836;51.050;3.716;2023-04-03T03:38:08;2.25;;;1.55;;
23328;SDS011;11836;51.050;3.716;2023-04-03T03:40:34;2.80;;;1.95;;
23328;SDS011;11836;51.050;3.716;2023-04-03T03:43:00;3.10;;;1.85;;
23328;SDS011;11836;51.050;3.716;2023-04-03T03:45:26;3.97;;;2.15;;
23328;SDS011;11836;51.050;3.716;2023-04-03T03:47:52;3.38;;;2.00;;
23328;SDS011;11836;51.050;3.716;2023-04-03T03:50:17;2.63;;;1.70;;
23328;SDS011;11836;51.050;3.716;2023-04-03T03:52:43;3.78;;;1.98;;
23328;SDS011;11836;51.050;3.716;2023-04-03T03:55:09;3.60;;;1.90;;
23328;SDS011;11836;51.050;3.716;2023-04-03T03:57:35;2.95;;;1.73;;
23328;SDS011;11836;51.050;3.716;2023-04-03T04:00:01;3.47;;;1.70;;
23328;SDS011;11836;51.050;3.716;2023-04-03T04:02:28;3.42;;;1.73;;
23328;SDS011;11836;51.050;3.716;2023-04-03T04:04:54;2.15;;;1.77;;
23328;SDS011;11836;51.050;3.716;2023-04-03T04:07:20;2.30;;;1.73;;
23328;SDS011;11836;51.050;3.716;2023-04-03T04:09:45;2.75;;;1.85;;
23328;SDS011;11836;51.050;3.716;2023-04-03T04:12:11;4.57;;;1.88;;
23328;SDS011;11836;51.050;3.716;2023-04-03T04:14:37;3.35;;;2.13;;
23328;SDS011;11836;51.050;3.716;2023-04-03T04:17:02;3.25;;;1.85;;
23328;SDS011;11836;51.050;3.716;2023-04-03T04:19:28;3.67;;;1.80;;
23328;SDS011;11836;51.050;3.716;2023-04-03T04:21:54;2.85;;;1.60;;
23328;SDS011;11836;51.050;3.716;2023-04-03T04:24:19;4.85;;;1.83;;
23328;SDS011;11836;51.050;3.716;2023-04-03T04:26:45;3.03;;;2.10;;
23328;SDS011;11836;51.050;3.716;2023-04-03T04:29:11;4.18;;;2.00;;
23328;SDS011;11836;51.050;3.716;2023-04-03T04:31:36;2.33;;;1.70;;
23328;SDS011;11836;51.050;3.716;2023-04-03T04:34:02;3.40;;;1.80;;
23328;SDS011;11836;51.050;3.716;2023-04-03T04:36:28;2.53;;;1.80;;
23328;SDS011;11836;51.050;3.716;2023-04-03T04:38:53;3.30;;;1.83;;
23328;SDS011;11836;51.050;3.716;2023-04-03T04:41:20;5.15;;;1.98;;
23328;SDS011;11836;51.050;3.716;2023-04-03T04:44:08;3.35;;;2.00;;
23328;SDS011;11836;51.050;3.716;2023-04-03T04:46:33;4.60;;;1.73;;
23328;SDS011;11836;51.050;3.716;2023-04-03T04:48:58;2.05;;;1.55;;
23328;SDS011;11836;51.050;3.716;2023-04-03T04:51:24;3.13;;;1.80;;
23328;SDS011;11836;51.050;3.716;2023-04-03T04:53:50;5.95;;;1.63;;
23328;SDS011;11836;51.050;3.716;2023-04-03T04:56:16;3.72;;;1.88;;
23328;SDS011;11836;51.050;3.716;2023-04-03T04:58:42;3.15;;;2.10;;
23328;SDS011;11836;51.050;3.716;2023-04-03T05:01:08;2.75;;;1.63;;
23328;SDS011;11836;51.050;3.716;2023-04-03T05:03:35;4.47;;;2.03;;
23328;SDS011;11836;51.050;3.716;2023-04-03T05:06:01;2.47;;;1.55;;
23328;SDS011;11836;51.050;3.716;2023-04-03T05:08:27;2.95;;;1.80;;
23328;SDS011;11836;51.050;3.716;2023-04-03T05:10:53;3.03;;;1.90;;
23328;SDS011;11836;51.050;3.716;2023-04-03T05:13:18;3.47;;;2.00;;
23328;SDS011;11836;51.050;3.716;2023-04-03T05:15:44;4.07;;;1.92;;
23328;SDS011;11836;51.050;3.716;2023-04-03T05:18:11;4.55;;;2.45;;
23328;SDS011;11836;51.050;3.716;2023-04-03T05:20:37;2.30;;;1.67;;
23328;SDS011;11836;51.050;3.716;2023-04-03T05:23:03;2.58;;;1.95;;
23328;SDS011;11836;51.050;3.716;2023-04-03T05:25:28;2.45;;;1.75;;
23328;SDS011;11836;51.050;3.716;2023-04-03T05:27:54;3.00;;;1.92;;
23328;SDS011;11836;51.050;3.716;2023-04-03T05:30:20;3.42;;;2.15;;
23328;SDS011;11836;51.050;3.716;2023-04-03T05:32:49;3.50;;;1.50;;
23328;SDS011;11836;51.050;3.716;2023-04-03T05:35:15;2.03;;;1.55;;
23328;SDS011;11836;51.050;3.716;2023-04-03T05:37:40;4.50;;;2.08;;
23328;SDS011;11836;51.050;3.716;2023-04-03T05:40:06;3.72;;;1.85;;
23328;SDS011;11836;51.050;3.716;2023-04-03T05:42:33;3.15;;;1.88;;
23328;SDS011;11836;51.050;3.716;2023-04-03T05:44:59;4.45;;;1.90;;
23328;SDS011;11836;51.050;3.716;2023-04-03T05:47:25;2.15;;;1.70;;
23328;SDS011;11836;51.050;3.716;2023-04-03T05:49:51;3.50;;;1.85;;
23328;SDS011;11836;51.050;3.716;2023-04-03T05:54:45;4.03;;;1.83;;
23328;SDS011;11836;51.050;3.716;2023-04-03T05:57:13;2.67;;;1.80;;
23328;SDS011;11836;51.050;3.716;2023-04-03T05:59:40;3.95;;;2.22;;
23328;SDS011;11836;51.050;3.716;2023-04-03T06:02:09;3.13;;;1.83;;
23328;SDS011;11836;51.050;3.716;2023-04-03T06:04:39;3.88;;;2.05;;
23328;SDS011;11836;51.050;3.716;2023-04-03T06:07:05;4.28;;;2.08;;
23328;SDS011;11836;51.050;3.716;2023-04-03T06:09:31;3.95;;;1.83;;
23328;SDS011;11836;51.050;3.716;2023-04-03T06:11:57;3.97;;;1.95;;
23328;SDS011;11836;51.050;3.716;2023-04-03T06:14:27;3.97;;;2.65;;
23328;SDS011;11836;51.050;3.716;2023-04-03T06:16:58;5.50;;;3.00;;
23328;SDS011;11836;51.050;3.716;2023-04-03T06:19:24;5.60;;;2.90;;
23328;SDS011;11836;51.050;3.716;2023-04-03T06:21:51;5.07;;;2.90;;
23328;SDS011;11836;51.050;3.716;2023-04-03T06:24:17;8.48;;;2.70;;
23328;SDS011;11836;51.050;3.716;2023-04-03T06:26:43;4.80;;;2.95;;
23328;SDS011;11836;51.050;3.716;2023-04-03T06:29:09;6.95;;;3.00;;
23328;SDS011;11836;51.050;3.716;2023-04-03T06:31:35;4.90;;;2.70;;
23328;SDS011;11836;51.050;3.716;2023-04-03T06:34:04;7.28;;;2.92;;
23328;SDS011;11836;51.050;3.716;2023-04-03T06:36:31;5.78;;;2.70;;
23328;SDS011;11836;51.050;3.716;2023-04-03T06:38:57;4.53;;;2.33;;
23328;SDS011;11836;51.050;3.716;2023-04-03T06:41:22;7.15;;;2.50;;
23328;SDS011;11836;51.050;3.716;2023-04-03T06:43:48;4.30;;;2.10;;
23328;SDS011;11836;51.050;3.716;2023-04-03T06:46:18;7.35;;;2.20;;
23328;SDS011;11836;51.050;3.716;2023-04-03T06:48:45;7.43;;;2.40;;
23328;SDS011;11836;51.050;3.716;2023-04-03T06:53:53;4.28;;;2.42;;
23328;SDS011;11836;51.050;3.716;2023-04-03T06:56:21;6.45;;;2.33;;
23328;SDS011;11836;51.050;3.716;2023-04-03T06:58:47;5.25;;;1.85;;
23328;SDS011;11836;51.050;3.716;2023-04-03T07:01:15;7.10;;;2.13;;
23328;SDS011;11836;51.050;3.716;2023-04-03T07:03:42;3.00;;;2.03;;
23328;SDS011;11836;51.050;3.716;2023-04-03T07:06:09;3.47;;;1.90;;
23328;SDS011;11836;51.050;3.716;2023-04-03T07:08:36;2.63;;;1.75;;
23328;SDS011;11836;51.050;3.716;2023-04-03T07:11:15;4.15;;;1.95;;
23328;SDS011;11836;51.050;3.716;2023-04-03T07:13:41;2.78;;;1.83;;
23328;SDS011;11836;51.050;3.716;2023-04-03T07:16:07;4.68;;;1.70;;
23328;SDS011;11836;51.050;3.716;2023-04-03T07:18:36;3.20;;;1.98;;
23328;SDS011;11836;51.050;3.716;2023-04-03T07:21:20;4.10;;;2.10;;
23328;SDS011;11836;51.050;3.716;2023-04-03T07:23:49;2.80;;;1.92;;
23328;SDS011;11836;51.050;3.716;2023-04-03T07:26:50;2.65;;;1.80;;
23328;SDS011;11836;51.050;3.716;2023-04-03T07:29:17;3.22;;;2.00;;
23328;SDS011;11836;51.050;3.716;2023-04-03T07:31:43;3.28;;;1.60;;
23328;SDS011;11836;51.050;3.716;2023-04-03T07:34:09;3.25;;;1.80;;
23328;SDS011;11836;51.050;3.716;2023-04-03T07:36:36;2.78;;;1.70;;
23328;SDS011;11836;51.050;3.716;2023-04-03T07:39:02;2.60;;;1.85;;
23328;SDS011;11836;51.050;3.716;2023-04-03T07:41:29;2.63;;;1.95;;
23328;SDS011;11836;51.050;3.716;2023-04-03T07:43:55;2.67;;;2.00;;
23328;SDS011;11836;51.050;3.716;2023-04-03T07:46:23;6.50;;;2.13;;
23328;SDS011;11836;51.050;3.716;2023-04-03T07:48:49;3.67;;;1.95;;
23328;SDS011;11836;51.050;3.716;2023-04-03T07:51:15;6.88;;;1.80;;
23328;SDS011;11836;51.050;3.716;2023-04-03T07:53:41;3.63;;;1.70;;
23328;SDS011;11836;51.050;3.716;2023-04-03T07:56:12;3.58;;;1.77;;
23328;SDS011;11836;51.050;3.716;2023-04-03T07:58:38;3.13;;;1.52;;
23328;SDS011;11836;51.050;3.716;2023-04-03T08:01:04;3.95;;;2.22;;
23328;SDS011;11836;51.050;3.716;2023-04-03T08:03:29;3.47;;;1.83;;
23328;SDS011;11836;51.050;3.716;2023-04-03T08:06:00;3.72;;;1.83;;
23328;SDS011;11836;51.050;3.716;2023-04-03T08:08:28;4.05;;;1.85;;
23328;SDS011;11836;51.050;3.716;2023-04-03T08:10:58;2.60;;;1.63;;
23328;SDS011;11836;51.050;3.716;2023-04-03T08:13:25;2.95;;;1.50;;
23328;SDS011;11836;51.050;3.716;2023-04-03T08:15:51;3.42;;;1.55;;
23328;SDS011;11836;51.050;3.716;2023-04-03T08:18:17;4.07;;;2.15;;
23328;SDS011;11836;51.050;3.716;2023-04-03T08:20:46;3.30;;;1.97;;
23328;SDS011;11836;51.050;3.716;2023-04-03T08:23:12;3.55;;;1.70;;
23328;SDS011;11836;51.050;3.716;2023-04-03T08:25:40;3.85;;;1.70;;
23328;SDS011;11836;51.050;3.716;2023-04-03T08:28:07;2.78;;;1.80;;
23328;SDS011;11836;51.050;3.716;2023-04-03T08:30:34;3.13;;;1.80;;
23328;SDS011;11836;51.050;3.716;2023-04-03T08:33:00;3.03;;;1.55;;
23328;SDS011;11836;51.050;3.716;2023-04-03T08:35:27;2.38;;;1.50;;
23328;SDS011;11836;51.050;3.716;2023-04-03T08:37:53;3.40;;;1.70;;
23328;SDS011;11836;51.050;3.716;2023-04-03T08:40:18;2.47;;;1.65;;
23328;SDS011;11836;51.050;3.716;2023-04-03T08:43:46;3.58;;;1.70;;
23328;SDS011;11836;51.050;3.716;2023-04-03T08:45:55;3.75;;;2.10;;
23328;SDS011;11836;51.050;3.716;2023-04-03T08:48:35;3.15;;;1.58;;
23328;SDS011;11836;51.050;3.716;2023-04-03T08:51:09;2.47;;;1.42;;
23328;SDS011;11836;51.050;3.716;2023-04-03T08:54:01;3.38;;;1.80;;
23328;SDS011;11836;51.050;3.716;2023-04-03T08:56:33;3.00;;;1.52;;
23328;SDS011;11836;51.050;3.716;2023-04-03T08:59:00;3.67;;;1.77;;
23328;SDS011;11836;51.050;3.716;2023-04-03T09:01:36;2.83;;;1.80;;
23328;SDS011;11836;51.050;3.716;2023-04-03T09:04:11;5.28;;;1.83;;
23328;SDS011;11836;51.050;3.716;2023-04-03T09:06:39;3.72;;;1.65;;
23328;SDS011;11836;51.050;3.716;2023-04-03T09:11:50;2.75;;;1.73;;
23328;SDS011;11836;51.050;3.716;2023-04-03T09:17:22;3.00;;;1.63;;
23328;SDS011;11836;51.050;3.716;2023-04-03T09:22:48;5.43;;;1.92;;
23328;SDS011;11836;51.050;3.716;2023-04-03T09:25:22;7.05;;;2.25;;
23328;SDS011;11836;51.050;3.716;2023-04-03T09:27:50;4.35;;;1.98;;
23328;SDS011;11836;51.050;3.716;2023-04-03T09:30:18;3.65;;;1.80;;
23328;SDS011;11836;51.050;3.716;2023-04-03T09:32:50;2.67;;;1.73;;
23328;SDS011;11836;51.050;3.716;2023-04-03T09:35:27;3.72;;;1.85;;
23328;SDS011;11836;51.050;3.716;2023-04-03T09:38:14;5.15;;;2.03;;
23328;SDS011;11836;51.050;3.716;2023-04-03T09:40:49;4.05;;;2.17;;
23328;SDS011;11836;51.050;3.716;2023-04-03T09:43:40;3.78;;;1.85;;
23328;SDS011;11836;51.050;3.716;2023-04-03T09:46:25;4.35;;;1.63;;
23328;SDS011;11836;51.050;3.716;2023-04-03T09:48:57;5.47;;;2.17;;
23328;SDS011;11836;51.050;3.716;2023-04-03T09:51:25;8.80;;;2.50;;
23328;SDS011;11836;51.050;3.716;2023-04-03T09:53:52;5.40;;;2.10;;
23328;SDS011;11836;51.050;3.716;2023-04-03T10:01:28;4.78;;;2.30;;
23328;SDS011;11836;51.050;3.716;2023-04-03T10:06:41;5.68;;;2.47;;
23328;SDS011;11836;51.050;3.716;2023-04-03T10:09:16;8.25;;;2.75;;
23328;SDS011;11836;51.050;3.716;2023-04-03T10:14:30;3.85;;;1.85;;
23328;SDS011;11836;51.050;3.716;2023-04-03T10:19:41;3.95;;;1.65;;
23328;SDS011;11836;51.050;3.716;2023-04-03T10:34:04;4.47;;;2.10;;
23328;SDS011;11836;51.050;3.716;2023-04-03T10:36:49;4.10;;;1.77;;
23328;SDS011;11836;51.050;3.716;2023-04-03T10:42:34;4.07;;;1.70;;
23328;SDS011;11836;51.050;3.716;2023-04-03T10:45:24;4.90;;;1.98;;
23328;SDS011;11836;51.050;3.716;2023-04-03T10:48:04;4.47;;;2.17;;
23328;SDS011;11836;51.050;3.716;2023-04-03T10:53:24;3.03;;;1.70;;
23328;SDS011;11836;51.050;3.716;2023-04-03T10:56:02;6.70;;;2.13;;
23328;SDS011;11836;51.050;3.716;2023-04-03T10:58:52;5.80;;;1.83;;
23328;SDS011;11836;51.050;3.716;2023-04-03T11:01:24;4.15;;;1.80;;
23328;SDS011;11836;51.050;3.716;2023-04-03T11:03:58;6.43;;;1.98;;
23328;SDS011;11836;51.050;3.716;2023-04-03T11:06:26;4.57;;;1.73;;
23328;SDS011;11836;51.050;3.716;2023-04-03T11:12:23;3.05;;;1.63;;
23328;SDS011;11836;51.050;3.716;2023-04-03T11:14:52;4.07;;;1.60;;
23328;SDS011;11836;51.050;3.716;2023-04-03T11:17:46;4.63;;;2.00;;
23328;SDS011;11836;51.050;3.716;2023-04-03T11:25:56;2.97;;;1.40;;
23328;SDS011;11836;51.050;3.716;2023-04-03T11:28:35;4.40;;;1.55;;
23328;SDS011;11836;51.050;3.716;2023-04-03T11:33:57;3.25;;;1.50;;
23328;SDS011;11836;51.050;3.716;2023-04-03T11:36:31;3.72;;;1.48;;
23328;SDS011;11836;51.050;3.716;2023-04-03T11:39:22;1.95;;;1.15;;
23328;SDS011;11836;51.050;3.716;2023-04-03T11:41:53;4.25;;;1.67;;
23328;SDS011;11836;51.050;3.716;2023-04-03T11:44:35;3.38;;;1.38;;
23328;SDS011;11836;51.050;3.716;2023-04-03T11:47:04;3.45;;;1.30;;
23328;SDS011;11836;51.050;3.716;2023-04-03T11:50:05;3.45;;;1.23;;
23328;SDS011;11836;51.050;3.716;2023-04-03T12:26:46;2.95;;;1.40;;
23328;SDS011;11836;51.050;3.716;2023-04-03T12:29:36;1.35;;;0.98;;
23328;SDS011;11836;51.050;3.716;2023-04-03T12:44:35;1.65;;;1.20;;
23328;SDS011;11836;51.050;3.716;2023-04-03T12:47:50;2.15;;;0.95;;
23328;SDS011;11836;51.050;3.716;2023-04-03T12:50:18;3.42;;;1.08;;
23328;SDS011;11836;51.050;3.716;2023-04-03T12:53:04;1.98;;;1.00;;
23328;SDS011;11836;51.050;3.716;2023-04-03T12:55:38;2.88;;;1.17;;
23328;SDS011;11836;51.050;3.716;2023-04-03T12:58:14;1.00;;;0.70;;
23328;SDS011;11836;51.050;3.716;2023-04-03T13:00:42;1.33;;;0.73;;
23328;SDS011;11836;51.050;3.716;2023-04-03T13:03:18;1.33;;;0.70;;
23328;SDS011;11836;51.050;3.716;2023-04-03T13:05:50;2.25;;;1.00;;
23328;SDS011;11836;51.050;3.716;2023-04-03T13:08:15;1.25;;;0.85;;
23328;SDS011;11836;51.050;3.716;2023-04-03T13:10:50;3.08;;;1.05;;
23328;SDS011;11836;51.050;3.716;2023-04-03T13:13:23;3.22;;;1.08;;
23328;SDS011;11836;51.050;3.716;2023-04-03T13:15:48;1.90;;;0.90;;
23328;SDS011;11836;51.050;3.716;2023-04-03T13:20:53;3.25;;;1.10;;
23328;SDS011;11836;51.050;3.716;2023-04-03T13:23:26;1.90;;;0.60;;
23328;SDS011;11836;51.050;3.716;2023-04-03T13:25:53;2.05;;;1.05;;
23328;SDS011;11836;51.050;3.716;2023-04-03T13:28:21;1.45;;;0.68;;
23328;SDS011;11836;51.050;3.716;2023-04-03T13:31:51;2.10;;;0.90;;
23328;SDS011;11836;51.050;3.716;2023-04-03T13:36:38;3.28;;;1.17;;
23328;SDS011;11836;51.050;3.716;2023-04-03T13:39:07;1.30;;;0.90;;
23328;SDS011;11836;51.050;3.716;2023-04-03T13:41:49;3.78;;;0.82;;
23328;SDS011;11836;51.050;3.716;2023-04-03T13:47:14;1.23;;;0.90;;
23328;SDS011;11836;51.050;3.716;2023-04-03T13:55:03;1.27;;;0.77;;
23328;SDS011;11836;51.050;3.716;2023-04-03T13:57:50;1.23;;;0.50;;
23328;SDS011;11836;51.050;3.716;2023-04-03T14:00:19;2.92;;;0.50;;
23328;SDS011;11836;51.050;3.716;2023-04-03T14:02:54;1.45;;;0.63;;
23328;SDS011;11836;51.050;3.716;2023-04-03T14:05:21;1.20;;;0.77;;
23328;SDS011;11836;51.050;3.716;2023-04-03T14:07:50;1.52;;;0.90;;
23328;SDS011;11836;51.050;3.716;2023-04-03T14:10:17;1.13;;;0.60;;
23328;SDS011;11836;51.050;3.716;2023-04-03T14:12:42;1.38;;;0.70;;
23328;SDS011;11836;51.050;3.716;2023-04-03T14:15:18;2.63;;;0.60;;
23328;SDS011;11836;51.050;3.716;2023-04-03T14:17:49;1.98;;;0.88;;
23328;SDS011;11836;51.050;3.716;2023-04-03T14:20:20;0.68;;;0.47;;
23328;SDS011;11836;51.050;3.716;2023-04-03T14:22:48;1.05;;;0.73;;
23328;SDS011;11836;51.050;3.716;2023-04-03T14:25:15;1.75;;;0.80;;
23328;SDS011;11836;51.050;3.716;2023-04-03T14:27:45;3.05;;;0.95;;
23328;SDS011;11836;51.050;3.716;2023-04-03T14:30:15;1.35;;;0.90;;
23328;SDS011;11836;51.050;3.716;2023-04-03T14:32:53;2.28;;;0.88;;
23328;SDS011;11836;51.050;3.716;2023-04-03T14:35:19;1.42;;;0.80;;
23328;SDS011;11836;51.050;3.716;2023-04-03T14:37:46;1.58;;;0.70;;
23328;SDS011;11836;51.050;3.716;2023-04-03T14:40:13;1.85;;;1.00;;
23328;SDS011;11836;51.050;3.716;2023-04-03T14:42:42;1.02;;;0.60;;
23328;SDS011;11836;51.050;3.716;2023-04-03T14:45:09;1.50;;;0.68;;
23328;SDS011;11836;51.050;3.716;2023-04-03T14:47:44;1.20;;;0.57;;
23328;SDS011;11836;51.050;3.716;2023-04-03T14:50:17;1.60;;;0.70;;
23328;SDS011;11836;51.050;3.716;2023-04-03T14:52:46;1.83;;;0.60;;
23328;SDS011;11836;51.050;3.716;2023-04-03T14:55:14;0.88;;;0.60;;
23328;SDS011;11836;51.050;3.716;2023-04-03T14:57:41;1.63;;;0.60;;
23328;SDS011;11836;51.050;3.716;2023-04-03T15:00:11;1.38;;;0.77;;
23328;SDS011;11836;51.050;3.716;2023-04-03T15:02:39;1.35;;;0.90;;
23328;SDS011;11836;51.050;3.716;2023-04-03T15:05:06;2.08;;;0.73;;
23328;SDS011;11836;51.050;3.716;2023-04-03T15:07:42;1.10;;;0.60;;
23328;SDS011;11836;51.050;3.716;2023-04-03T15:12:42;0.68;;;0.68;;
23328;SDS011;11836;51.050;3.716;2023-04-03T15:15:08;0.95;;;0.68;;
23328;SDS011;11836;51.050;3.716;2023-04-03T15:17:41;1.15;;;0.90;;
23328;SDS011;11836;51.050;3.716;2023-04-03T15:20:12;1.25;;;0.60;;
23328;SDS011;11836;51.050;3.716;2023-04-03T15:22:39;0.85;;;0.52;;
23328;SDS011;11836;51.050;3.716;2023-04-03T15:25:05;1.17;;;1.00;;
23328;SDS011;11836;51.050;3.716;2023-04-03T15:27:31;1.25;;;0.70;;
23328;SDS011;11836;51.050;3.716;2023-04-03T15:29:57;1.30;;;0.70;;
23328;SDS011;11836;51.050;3.716;2023-04-03T15:32:23;1.38;;;0.90;;
23328;SDS011;11836;51.050;3.716;2023-04-03T15:34:49;1.13;;;0.65;;
23328;SDS011;11836;51.050;3.716;2023-04-03T15:37:14;1.85;;;0.77;;
23328;SDS011;11836;51.050;3.716;2023-04-03T15:39:40;1.40;;;0.82;;
23328;SDS011;11836;51.050;3.716;2023-04-03T15:42:06;1.83;;;0.70;;
23328;SDS011;11836;51.050;3.716;2023-04-03T15:44:32;2.35;;;0.80;;
23328;SDS011;11836;51.050;3.716;2023-04-03T15:47:00;1.10;;;0.70;;
23328;SDS011;11836;51.050;3.716;2023-04-03T15:49:27;1.15;;;0.77;;
23328;SDS011;11836;51.050;3.716;2023-04-03T15:51:53;1.15;;;0.60;;
23328;SDS011;11836;51.050;3.716;2023-04-03T15:54:19;1.08;;;0.70;;
23328;SDS011;11836;51.050;3.716;2023-04-03T15:56:45;1.58;;;0.73;;
23328;SDS011;11836;51.050;3.716;2023-04-03T15:59:11;2.55;;;0.73;;
23328;SDS011;11836;51.050;3.716;2023-04-03T16:01:37;1.30;;;0.73;;
23328;SDS011;11836;51.050;3.716;2023-04-03T16:04:04;0.77;;;0.55;;
23328;SDS011;11836;51.050;3.716;2023-04-03T16:06:32;1.10;;;0.55;;
23328;SDS011;11836;51.050;3.716;2023-04-03T16:08:58;1.13;;;0.60;;
23328;SDS011;11836;51.050;3.716;2023-04-03T16:11:26;1.42;;;0.70;;
23328;SDS011;11836;51.050;3.716;2023-04-03T16:13:53;1.58;;;0.55;;
23328;SDS011;11836;51.050;3.716;2023-04-03T16:16:19;2.25;;;0.70;;
23328;SDS011;11836;51.050;3.716;2023-04-03T16:18:45;1.00;;;0.70;;
23328;SDS011;11836;51.050;3.716;2023-04-03T16:21:17;1.83;;;0.80;;
23328;SDS011;11836;51.050;3.716;2023-04-03T16:23:43;1.55;;;0.70;;
23328;SDS011;11836;51.050;3.716;2023-04-03T16:26:09;1.38;;;0.90;;
23328;SDS011;11836;51.050;3.716;2023-04-03T16:28:38;1.27;;;0.75;;
23328;SDS011;11836;51.050;3.716;2023-04-03T16:31:05;1.50;;;0.80;;
23328;SDS011;11836;51.050;3.716;2023-04-03T16:33:52;0.98;;;0.73;;
23328;SDS011;11836;51.050;3.716;2023-04-03T16:36:26;2.92;;;0.73;;
23328;SDS011;11836;51.050;3.716;2023-04-03T16:38:55;3.50;;;0.90;;
23328;SDS011;11836;51.050;3.716;2023-04-03T16:41:20;2.15;;;0.60;;
23328;SDS011;11836;51.050;3.716;2023-04-03T16:43:46;1.40;;;0.82;;
23328;SDS011;11836;51.050;3.716;2023-04-03T16:46:11;3.17;;;1.13;;
23328;SDS011;11836;51.050;3.716;2023-04-03T16:48:37;1.25;;;0.63;;
23328;SDS011;11836;51.050;3.716;2023-04-03T16:51:08;1.20;;;0.50;;
23328;SDS011;11836;51.050;3.716;2023-04-03T16:53:34;1.35;;;0.75;;
23328;SDS011;11836;51.050;3.716;2023-04-03T16:56:00;1.13;;;0.77;;
23328;SDS011;11836;51.050;3.716;2023-04-03T16:58:26;1.08;;;0.70;;
23328;SDS011;11836;51.050;3.716;2023-04-03T17:00:56;0.52;;;0.52;;
23328;SDS011;11836;51.050;3.716;2023-04-03T17:03:24;2.65;;;0.80;;
23328;SDS011;11836;51.050;3.716;2023-04-03T17:05:50;1.52;;;0.60;;
23328;SDS011;11836;51.050;3.716;2023-04-03T17:08:17;1.73;;;0.77;;
23328;SDS011;11836;51.050;3.716;2023-04-03T17:10:43;1.33;;;0.77;;